Flight Track Log - Related Links

Times and Time Zones

All times are in EDT time to prevent confusion due to time zone crossing. See the GJS3633 flight status page for this flight to view local times or setup timezone preferences in your user account.


Time Position Orientation Groundspeed Altitude Reporting Facility
EDT Latitude Longitude Course Direction KTS MPH feet Rate Location/Type
Fri 06:49:56 AM 41.9164 -91.7531 46° Northeast 211 243 4,100  Level Chicago Center
Fri 06:50:56 AM 41.9569 -91.6878 50° Northeast 218 251 6,100 2,380 Climbing Chicago Center
Fri 06:51:00 AM 42.0755 -91.4271 45° Northeast  Level FlightAware Approximate
Fri 06:51:57 AM 42.0086 -91.6086 49° Northeast 263 303 8,900  Level Chicago Center
Fri 06:52:00 AM 42.1384 -91.3341 48° Northeast  Level FlightAware Approximate
Fri 06:52:57 AM 42.0658 -91.5256 47° Northeast 299 344 10,900  Level Chicago Center
Fri 06:53:00 AM 42.2022 -91.2422 47° Northeast  Level FlightAware Approximate
Fri 06:53:58 AM 42.1303 -91.4267 49° Northeast 347 399 12,900  Level Chicago Center
Fri 06:54:00 AM 42.2663 -91.1506 47° Northeast  Level FlightAware Approximate
Fri 06:54:58 AM 42.1972 -91.3236 49° Northeast 363 418 15,100  Level Chicago Center
Fri 06:55:00 AM 42.3523 -91.0446 46° Northeast  Level FlightAware Approximate
Fri 06:55:59 AM 42.2683 -91.2167 48° Northeast 381 438 17,200  Level Chicago Center
Fri 06:56:59 AM 42.3386 -91.1094 48° Northeast 384 442 18,700 1,686 Climbing Chicago Center
Fri 06:58:00 AM 42.4139 -90.9958 48° Northeast 398 458 20,600 1,967 Climbing Chicago Center
Fri 06:59:01 AM 42.5047 -90.8514 50° Northeast 419 482 22,700 1,190 Climbing Chicago Center
Fri 07:00:01 AM 42.5264 -90.6892 80° East 451 519 23,000 149 Climbing Chicago Center
Fri 07:01:02 AM 42.5244 -90.5175 91° East 459 528 23,000  Level Chicago Center
Fri 07:02:02 AM 42.5222 -90.3458 91° East 459 528 23,000  Level Chicago Center
Fri 07:03:03 AM 42.5119 -90.1772 95° East 458 527 23,000  Level Chicago Center
Fri 07:04:03 AM 42.5036 -90.0086 94° East 453 521 23,000  Level Chicago Center
Fri 07:05:04 AM 42.4917 -89.8406 95° East 444 511 23,000 -885 Level Chicago Center
Fri 07:06:05 AM 42.4814 -89.6678 95° East 457 526 21,200 -1,835 Descending Chicago Center
Fri 07:07:05 AM 42.4728 -89.5003 94° East 457 526 19,300 -1,636 Descending Chicago Center
Fri 07:08:06 AM 42.4636 -89.3392 94° East 440 506 17,900 -1,721 Descending Chicago Center
Fri 07:09:07 AM 42.4542 -89.1864 95° East 420 483 15,800 -1,934 Descending Chicago Center
Fri 07:10:07 AM 42.4464 -89.0411 94° East 399 459 14,000 -1,835 Descending Chicago Center
Fri 07:11:08 AM 42.4367 -88.9008 95° East 385 443 12,100 -1,426 Descending Chicago Center
Fri 07:12:09 AM 42.4269 -88.7650 95° East 372 428 11,100 -541 Descending Chicago Center
Fri 07:13:10 AM 42.4058 -88.6022 100° East 374 430 11,000 -198 Descending Chicago Center
Fri 07:14:10 AM 42.3672 -88.4736 112° Southeast 375 432 10,700 -893 Descending Chicago Center
Fri 07:15:11 AM 42.3278 -88.3667 116° Southeast 321 369 9,200 -1,475 Descending Chicago Center
Fri 07:16:12 AM 42.2736 -88.3000 138° Southeast 264 304 7,700 -1,377 Descending Chicago Center
Fri 07:17:13 AM 42.2069 -88.2864 171° South 240 276 6,400 -1,230 Descending Chicago Center
Fri 07:18:14 AM 42.1433 -88.2742 172° South 233 268 5,200 -689 Descending Chicago Center
Fri 07:19:15 AM 42.0764 -88.2631 173° South 226 260 5,000 -98 Descending Chicago Center
Fri 07:20:16 AM 42.0125 -88.2517 172° South 230 265 5,000 -197 Level Chicago Center
Fri 07:21:17 AM 41.9775 -88.1914 128° Southeast 202 232 4,600 -738 Descending Chicago Center
Fri 07:22:18 AM 41.9633 -88.1206 105° East 201 231 3,500 -1,082 Descending Chicago Center
Fri 07:23:19 AM 41.9644 -88.0453 89° East 192 221 2,400 -934 Descending Chicago Center
Fri 07:24:20 AM 41.9647 -87.9925 90° East 144 166 1,600 -732 Descending Chicago Center
Fri 07:25:22 AM 41.9644 -87.9453 90° East 131 151 900 -341 Descending Chicago Center
Fri 07:26:23 AM 41.9647 -87.9042 89° East 131 151 900  Level Chicago Center

Login

Don't have an account? Register now (free) for customized features, flight alerts, and more!